sensor_id;sensor_type;location;lat;lon;timestamp;P1;durP1;ratioP1;P2;durP2;ratioP2
16612;SDS011;8419;52.358;9.752;2022-08-01T00:01:32;5.72;;;3.60;;
16612;SDS011;8419;52.358;9.752;2022-08-01T00:04:17;7.80;;;3.95;;
16612;SDS011;8419;52.358;9.752;2022-08-01T00:07:03;3.95;;;3.53;;
16612;SDS011;8419;52.358;9.752;2022-08-01T00:09:48;4.75;;;3.97;;
16612;SDS011;8419;52.358;9.752;2022-08-01T00:12:34;5.07;;;3.97;;
16612;SDS011;8419;52.358;9.752;2022-08-01T00:15:19;7.47;;;4.65;;
16612;SDS011;8419;52.358;9.752;2022-08-01T00:18:05;6.32;;;4.57;;
16612;SDS011;8419;52.358;9.752;2022-08-01T00:20:51;7.97;;;4.20;;
16612;SDS011;8419;52.358;9.752;2022-08-01T00:23:37;7.60;;;4.90;;
16612;SDS011;8419;52.358;9.752;2022-08-01T00:26:22;6.45;;;4.20;;
16612;SDS011;8419;52.358;9.752;2022-08-01T00:29:07;6.82;;;4.12;;
16612;SDS011;8419;52.358;9.752;2022-08-01T00:31:52;5.85;;;4.57;;
16612;SDS011;8419;52.358;9.752;2022-08-01T00:34:38;5.90;;;3.92;;
16612;SDS011;8419;52.358;9.752;2022-08-01T00:37:23;6.50;;;4.43;;
16612;SDS011;8419;52.358;9.752;2022-08-01T00:40:08;5.60;;;4.22;;
16612;SDS011;8419;52.358;9.752;2022-08-01T00:42:54;6.43;;;3.72;;
16612;SDS011;8419;52.358;9.752;2022-08-01T00:45:39;4.90;;;3.58;;
16612;SDS011;8419;52.358;9.752;2022-08-01T00:48:25;7.78;;;3.70;;
16612;SDS011;8419;52.358;9.752;2022-08-01T00:51:10;5.47;;;3.50;;
16612;SDS011;8419;52.358;9.752;2022-08-01T00:53:56;4.53;;;3.58;;
16612;SDS011;8419;52.358;9.752;2022-08-01T00:56:43;5.12;;;3.78;;
16612;SDS011;8419;52.358;9.752;2022-08-01T00:59:29;5.70;;;3.33;;
16612;SDS011;8419;52.358;9.752;2022-08-01T01:02:14;7.95;;;3.80;;
16612;SDS011;8419;52.358;9.752;2022-08-01T01:05:00;5.47;;;4.10;;
16612;SDS011;8419;52.358;9.752;2022-08-01T01:07:48;3.25;;;2.65;;
16612;SDS011;8419;52.358;9.752;2022-08-01T01:10:43;3.75;;;3.35;;
16612;SDS011;8419;52.358;9.752;2022-08-01T01:13:37;4.47;;;3.37;;
16612;SDS011;8419;52.358;9.752;2022-08-01T01:16:28;6.10;;;3.62;;
16612;SDS011;8419;52.358;9.752;2022-08-01T01:19:16;5.53;;;3.40;;
16612;SDS011;8419;52.358;9.752;2022-08-01T01:22:16;7.00;;;4.00;;
16612;SDS011;8419;52.358;9.752;2022-08-01T01:25:17;3.67;;;3.33;;
16612;SDS011;8419;52.358;9.752;2022-08-01T01:28:20;6.32;;;4.03;;
16612;SDS011;8419;52.358;9.752;2022-08-01T01:31:18;4.03;;;2.37;;
16612;SDS011;8419;52.358;9.752;2022-08-01T01:34:05;4.70;;;3.20;;
16612;SDS011;8419;52.358;9.752;2022-08-01T01:36:54;6.18;;;3.35;;
16612;SDS011;8419;52.358;9.752;2022-08-01T01:39:41;8.18;;;4.18;;
16612;SDS011;8419;52.358;9.752;2022-08-01T01:42:28;4.90;;;3.28;;
16612;SDS011;8419;52.358;9.752;2022-08-01T01:45:16;3.92;;;3.50;;
16612;SDS011;8419;52.358;9.752;2022-08-01T01:48:02;3.65;;;2.80;;
16612;SDS011;8419;52.358;9.752;2022-08-01T01:50:51;4.55;;;3.20;;
16612;SDS011;8419;52.358;9.752;2022-08-01T01:53:37;3.97;;;3.15;;
16612;SDS011;8419;52.358;9.752;2022-08-01T01:56:25;4.20;;;3.35;;
16612;SDS011;8419;52.358;9.752;2022-08-01T01:59:15;6.87;;;3.72;;
16612;SDS011;8419;52.358;9.752;2022-08-01T02:02:04;6.45;;;3.95;;
16612;SDS011;8419;52.358;9.752;2022-08-01T02:04:51;4.10;;;3.08;;
16612;SDS011;8419;52.358;9.752;2022-08-01T02:07:39;5.00;;;3.83;;
16612;SDS011;8419;52.358;9.752;2022-08-01T02:10:26;4.93;;;2.28;;
16612;SDS011;8419;52.358;9.752;2022-08-01T02:13:12;6.22;;;3.60;;
16612;SDS011;8419;52.358;9.752;2022-08-01T02:15:58;4.85;;;2.70;;
16612;SDS011;8419;52.358;9.752;2022-08-01T02:18:44;4.62;;;2.97;;
16612;SDS011;8419;52.358;9.752;2022-08-01T02:21:31;5.43;;;3.33;;
16612;SDS011;8419;52.358;9.752;2022-08-01T02:24:24;4.78;;;3.08;;
16612;SDS011;8419;52.358;9.752;2022-08-01T02:27:17;2.72;;;2.40;;
16612;SDS011;8419;52.358;9.752;2022-08-01T02:30:08;4.18;;;2.87;;
16612;SDS011;8419;52.358;9.752;2022-08-01T02:32:59;3.28;;;2.03;;
16612;SDS011;8419;52.358;9.752;2022-08-01T02:35:50;3.03;;;2.60;;
16612;SDS011;8419;52.358;9.752;2022-08-01T02:38:42;3.58;;;3.03;;
16612;SDS011;8419;52.358;9.752;2022-08-01T02:41:30;4.47;;;2.92;;
16612;SDS011;8419;52.358;9.752;2022-08-01T02:44:21;3.42;;;2.53;;
16612;SDS011;8419;52.358;9.752;2022-08-01T02:47:09;3.12;;;2.70;;
16612;SDS011;8419;52.358;9.752;2022-08-01T02:49:55;3.65;;;3.08;;
16612;SDS011;8419;52.358;9.752;2022-08-01T02:52:41;4.60;;;2.70;;
16612;SDS011;8419;52.358;9.752;2022-08-01T02:55:30;4.30;;;2.55;;
16612;SDS011;8419;52.358;9.752;2022-08-01T02:58:18;3.10;;;2.70;;
16612;SDS011;8419;52.358;9.752;2022-08-01T03:01:05;3.33;;;2.75;;
16612;SDS011;8419;52.358;9.752;2022-08-01T03:03:53;3.53;;;2.62;;
16612;SDS011;8419;52.358;9.752;2022-08-01T03:06:38;3.50;;;2.95;;
16612;SDS011;8419;52.358;9.752;2022-08-01T03:09:25;6.47;;;2.65;;
16612;SDS011;8419;52.358;9.752;2022-08-01T03:12:14;4.20;;;2.33;;
16612;SDS011;8419;52.358;9.752;2022-08-01T03:15:02;2.33;;;2.08;;
16612;SDS011;8419;52.358;9.752;2022-08-01T03:17:51;1.00;;;0.80;;
16612;SDS011;8419;52.358;9.752;2022-08-01T03:20:40;3.35;;;2.17;;
16612;SDS011;8419;52.358;9.752;2022-08-01T03:23:27;3.55;;;2.20;;
16612;SDS011;8419;52.358;9.752;2022-08-01T03:26:17;3.55;;;1.98;;
16612;SDS011;8419;52.358;9.752;2022-08-01T03:29:04;2.03;;;1.83;;
16612;SDS011;8419;52.358;9.752;2022-08-01T03:31:50;1.92;;;1.73;;
16612;SDS011;8419;52.358;9.752;2022-08-01T03:34:36;2.15;;;1.95;;
16612;SDS011;8419;52.358;9.752;2022-08-01T03:37:24;1.77;;;1.37;;
16612;SDS011;8419;52.358;9.752;2022-08-01T03:40:13;2.17;;;1.58;;
16612;SDS011;8419;52.358;9.752;2022-08-01T03:43:04;1.85;;;1.20;;
16612;SDS011;8419;52.358;9.752;2022-08-01T03:45:55;1.25;;;0.88;;
16612;SDS011;8419;52.358;9.752;2022-08-01T03:48:49;2.42;;;1.10;;
16612;SDS011;8419;52.358;9.752;2022-08-01T03:51:37;1.75;;;1.23;;
16612;SDS011;8419;52.358;9.752;2022-08-01T03:54:23;1.42;;;0.98;;
16612;SDS011;8419;52.358;9.752;2022-08-01T03:57:12;1.37;;;1.27;;
16612;SDS011;8419;52.358;9.752;2022-08-01T03:59:58;1.83;;;1.73;;
16612;SDS011;8419;52.358;9.752;2022-08-01T04:02:45;2.42;;;1.98;;
16612;SDS011;8419;52.358;9.752;2022-08-01T04:05:31;2.00;;;1.55;;
16612;SDS011;8419;52.358;9.752;2022-08-01T04:08:17;3.17;;;1.80;;
16612;SDS011;8419;52.358;9.752;2022-08-01T04:11:03;2.30;;;1.70;;
16612;SDS011;8419;52.358;9.752;2022-08-01T04:13:49;2.25;;;2.05;;
16612;SDS011;8419;52.358;9.752;2022-08-01T04:16:35;2.60;;;2.05;;
16612;SDS011;8419;52.358;9.752;2022-08-01T04:19:21;1.62;;;1.05;;
16612;SDS011;8419;52.358;9.752;2022-08-01T04:22:07;3.25;;;2.08;;
16612;SDS011;8419;52.358;9.752;2022-08-01T04:24:54;3.83;;;2.53;;
16612;SDS011;8419;52.358;9.752;2022-08-01T04:27:42;5.80;;;4.20;;
16612;SDS011;8419;52.358;9.752;2022-08-01T04:30:33;5.37;;;4.40;;
16612;SDS011;8419;52.358;9.752;2022-08-01T04:33:22;6.25;;;4.57;;
16612;SDS011;8419;52.358;9.752;2022-08-01T04:36:09;6.22;;;5.05;;
16612;SDS011;8419;52.358;9.752;2022-08-01T04:38:58;9.20;;;5.62;;
16612;SDS011;8419;52.358;9.752;2022-08-01T04:41:45;7.65;;;5.22;;
16612;SDS011;8419;52.358;9.752;2022-08-01T04:44:33;6.18;;;3.87;;
16612;SDS011;8419;52.358;9.752;2022-08-01T04:47:18;7.47;;;5.10;;
16612;SDS011;8419;52.358;9.752;2022-08-01T04:50:05;6.82;;;5.07;;
16612;SDS011;8419;52.358;9.752;2022-08-01T04:52:52;9.43;;;5.37;;
16612;SDS011;8419;52.358;9.752;2022-08-01T04:55:37;5.22;;;3.80;;
16612;SDS011;8419;52.358;9.752;2022-08-01T04:58:22;6.53;;;4.57;;
16612;SDS011;8419;52.358;9.752;2022-08-01T05:01:07;5.22;;;3.65;;
16612;SDS011;8419;52.358;9.752;2022-08-01T05:03:54;4.37;;;3.97;;
16612;SDS011;8419;52.358;9.752;2022-08-01T05:06:40;5.15;;;3.92;;
16612;SDS011;8419;52.358;9.752;2022-08-01T05:09:27;4.28;;;3.45;;
16612;SDS011;8419;52.358;9.752;2022-08-01T05:12:12;5.12;;;3.67;;
16612;SDS011;8419;52.358;9.752;2022-08-01T05:14:58;9.05;;;3.97;;
16612;SDS011;8419;52.358;9.752;2022-08-01T05:17:44;3.58;;;2.72;;
16612;SDS011;8419;52.358;9.752;2022-08-01T05:20:29;3.25;;;1.75;;
16612;SDS011;8419;52.358;9.752;2022-08-01T05:23:16;4.45;;;3.12;;
16612;SDS011;8419;52.358;9.752;2022-08-01T05:26:02;4.70;;;3.03;;
16612;SDS011;8419;52.358;9.752;2022-08-01T05:28:49;3.85;;;2.85;;
16612;SDS011;8419;52.358;9.752;2022-08-01T05:31:34;5.50;;;3.15;;
16612;SDS011;8419;52.358;9.752;2022-08-01T05:34:20;5.28;;;3.65;;
16612;SDS011;8419;52.358;9.752;2022-08-01T05:37:05;4.62;;;2.37;;
16612;SDS011;8419;52.358;9.752;2022-08-01T05:39:51;5.87;;;3.40;;
16612;SDS011;8419;52.358;9.752;2022-08-01T05:42:37;4.35;;;2.50;;
16612;SDS011;8419;52.358;9.752;2022-08-01T05:45:22;4.78;;;2.90;;
16612;SDS011;8419;52.358;9.752;2022-08-01T05:48:08;3.65;;;2.45;;
16612;SDS011;8419;52.358;9.752;2022-08-01T05:50:53;4.78;;;1.85;;
16612;SDS011;8419;52.358;9.752;2022-08-01T05:53:38;3.75;;;2.15;;
16612;SDS011;8419;52.358;9.752;2022-08-01T05:56:24;3.25;;;2.17;;
16612;SDS011;8419;52.358;9.752;2022-08-01T05:59:10;3.75;;;2.58;;
16612;SDS011;8419;52.358;9.752;2022-08-01T06:01:55;3.50;;;2.80;;
16612;SDS011;8419;52.358;9.752;2022-08-01T06:04:40;3.15;;;2.75;;
16612;SDS011;8419;52.358;9.752;2022-08-01T06:07:25;7.80;;;2.60;;
16612;SDS011;8419;52.358;9.752;2022-08-01T06:10:10;3.80;;;2.83;;
16612;SDS011;8419;52.358;9.752;2022-08-01T06:12:56;4.05;;;3.15;;
16612;SDS011;8419;52.358;9.752;2022-08-01T06:15:42;4.45;;;2.60;;
16612;SDS011;8419;52.358;9.752;2022-08-01T06:18:28;3.00;;;2.70;;
16612;SDS011;8419;52.358;9.752;2022-08-01T06:21:13;4.87;;;2.80;;
16612;SDS011;8419;52.358;9.752;2022-08-01T06:23:59;3.92;;;3.10;;
16612;SDS011;8419;52.358;9.752;2022-08-01T06:26:44;5.87;;;3.72;;
16612;SDS011;8419;52.358;9.752;2022-08-01T06:29:31;4.25;;;3.30;;
16612;SDS011;8419;52.358;9.752;2022-08-01T06:32:17;3.28;;;2.87;;
16612;SDS011;8419;52.358;9.752;2022-08-01T06:35:07;4.95;;;3.58;;
16612;SDS011;8419;52.358;9.752;2022-08-01T06:37:53;3.50;;;2.72;;
16612;SDS011;8419;52.358;9.752;2022-08-01T06:40:38;3.10;;;2.83;;
16612;SDS011;8419;52.358;9.752;2022-08-01T06:43:23;4.55;;;2.92;;
16612;SDS011;8419;52.358;9.752;2022-08-01T06:46:10;3.40;;;2.62;;
16612;SDS011;8419;52.358;9.752;2022-08-01T06:48:55;2.67;;;2.45;;
16612;SDS011;8419;52.358;9.752;2022-08-01T06:51:40;3.10;;;2.60;;
16612;SDS011;8419;52.358;9.752;2022-08-01T06:54:25;6.75;;;3.03;;
16612;SDS011;8419;52.358;9.752;2022-08-01T06:57:11;4.70;;;3.30;;
16612;SDS011;8419;52.358;9.752;2022-08-01T06:59:56;3.62;;;3.22;;
16612;SDS011;8419;52.358;9.752;2022-08-01T07:02:42;3.20;;;2.87;;
16612;SDS011;8419;52.358;9.752;2022-08-01T07:05:27;3.95;;;2.62;;
16612;SDS011;8419;52.358;9.752;2022-08-01T07:08:15;3.92;;;2.87;;
16612;SDS011;8419;52.358;9.752;2022-08-01T07:11:00;3.05;;;2.75;;
16612;SDS011;8419;52.358;9.752;2022-08-01T07:13:47;2.75;;;2.55;;
16612;SDS011;8419;52.358;9.752;2022-08-01T07:16:33;4.97;;;2.75;;
16612;SDS011;8419;52.358;9.752;2022-08-01T07:19:18;3.28;;;2.97;;
16612;SDS011;8419;52.358;9.752;2022-08-01T07:22:04;4.35;;;2.60;;
16612;SDS011;8419;52.358;9.752;2022-08-01T07:24:49;4.10;;;2.72;;
16612;SDS011;8419;52.358;9.752;2022-08-01T07:27:35;4.22;;;2.35;;
16612;SDS011;8419;52.358;9.752;2022-08-01T07:30:21;3.10;;;2.50;;
16612;SDS011;8419;52.358;9.752;2022-08-01T07:33:06;4.20;;;2.62;;
16612;SDS011;8419;52.358;9.752;2022-08-01T07:35:51;2.00;;;1.80;;
16612;SDS011;8419;52.358;9.752;2022-08-01T07:38:36;3.42;;;1.83;;
16612;SDS011;8419;52.358;9.752;2022-08-01T07:41:21;1.75;;;1.60;;
16612;SDS011;8419;52.358;9.752;2022-08-01T07:44:07;1.73;;;1.62;;
16612;SDS011;8419;52.358;9.752;2022-08-01T07:46:52;1.87;;;1.77;;
16612;SDS011;8419;52.358;9.752;2022-08-01T07:49:37;2.30;;;2.05;;
16612;SDS011;8419;52.358;9.752;2022-08-01T07:52:23;2.05;;;1.85;;
16612;SDS011;8419;52.358;9.752;2022-08-01T07:55:09;1.70;;;1.60;;
16612;SDS011;8419;52.358;9.752;2022-08-01T07:57:55;2.10;;;1.52;;
16612;SDS011;8419;52.358;9.752;2022-08-01T08:00:41;1.80;;;1.23;;
16612;SDS011;8419;52.358;9.752;2022-08-01T08:03:26;1.27;;;1.17;;
16612;SDS011;8419;52.358;9.752;2022-08-01T08:06:13;1.83;;;1.70;;
16612;SDS011;8419;52.358;9.752;2022-08-01T08:08:59;2.20;;;2.00;;
16612;SDS011;8419;52.358;9.752;2022-08-01T08:11:44;2.58;;;2.20;;
16612;SDS011;8419;52.358;9.752;2022-08-01T08:14:30;2.85;;;2.37;;
16612;SDS011;8419;52.358;9.752;2022-08-01T08:17:15;3.62;;;2.62;;
16612;SDS011;8419;52.358;9.752;2022-08-01T08:20:02;3.53;;;2.28;;
16612;SDS011;8419;52.358;9.752;2022-08-01T08:22:49;2.75;;;2.47;;
16612;SDS011;8419;52.358;9.752;2022-08-01T08:25:35;4.07;;;3.40;;
16612;SDS011;8419;52.358;9.752;2022-08-01T08:28:20;3.90;;;3.53;;
16612;SDS011;8419;52.358;9.752;2022-08-01T08:31:06;4.25;;;3.85;;
16612;SDS011;8419;52.358;9.752;2022-08-01T08:33:52;4.47;;;4.07;;
16612;SDS011;8419;52.358;9.752;2022-08-01T08:36:37;4.00;;;3.62;;
16612;SDS011;8419;52.358;9.752;2022-08-01T08:39:23;5.87;;;4.00;;
16612;SDS011;8419;52.358;9.752;2022-08-01T08:42:09;5.10;;;3.70;;
16612;SDS011;8419;52.358;9.752;2022-08-01T08:44:56;4.55;;;3.42;;
16612;SDS011;8419;52.358;9.752;2022-08-01T08:47:41;1.55;;;1.45;;
16612;SDS011;8419;52.358;9.752;2022-08-01T08:50:30;3.55;;;2.53;;
16612;SDS011;8419;52.358;9.752;2022-08-01T08:53:17;1.90;;;1.80;;
16612;SDS011;8419;52.358;9.752;2022-08-01T08:56:05;2.87;;;1.95;;
16612;SDS011;8419;52.358;9.752;2022-08-01T08:58:52;1.65;;;1.40;;
16612;SDS011;8419;52.358;9.752;2022-08-01T09:01:38;2.25;;;1.85;;
16612;SDS011;8419;52.358;9.752;2022-08-01T09:04:24;2.10;;;1.70;;
16612;SDS011;8419;52.358;9.752;2022-08-01T09:07:10;2.58;;;2.00;;
16612;SDS011;8419;52.358;9.752;2022-08-01T09:09:55;2.70;;;1.48;;
16612;SDS011;8419;52.358;9.752;2022-08-01T09:12:54;2.47;;;1.70;;
16612;SDS011;8419;52.358;9.752;2022-08-01T09:15:48;1.80;;;1.27;;
16612;SDS011;8419;52.358;9.752;2022-08-01T09:18:35;5.30;;;1.83;;
16612;SDS011;8419;52.358;9.752;2022-08-01T09:21:24;2.55;;;1.42;;
16612;SDS011;8419;52.358;9.752;2022-08-01T09:24:15;3.12;;;1.55;;
16612;SDS011;8419;52.358;9.752;2022-08-01T09:27:01;0.70;;;0.70;;
16612;SDS011;8419;52.358;9.752;2022-08-01T09:30:08;2.17;;;1.40;;
16612;SDS011;8419;52.358;9.752;2022-08-01T09:32:55;1.50;;;1.40;;
16612;SDS011;8419;52.358;9.752;2022-08-01T09:35:42;2.12;;;1.30;;
16612;SDS011;8419;52.358;9.752;2022-08-01T09:38:29;1.83;;;1.42;;
16612;SDS011;8419;52.358;9.752;2022-08-01T09:41:14;2.08;;;1.55;;
16612;SDS011;8419;52.358;9.752;2022-08-01T09:44:00;3.78;;;1.85;;
16612;SDS011;8419;52.358;9.752;2022-08-01T09:46:49;3.87;;;2.22;;
16612;SDS011;8419;52.358;9.752;2022-08-01T09:49:37;2.33;;;1.67;;
16612;SDS011;8419;52.358;9.752;2022-08-01T09:52:24;3.67;;;2.20;;
16612;SDS011;8419;52.358;9.752;2022-08-01T09:55:11;2.50;;;2.28;;
16612;SDS011;8419;52.358;9.752;2022-08-01T09:58:05;0.75;;;0.75;;
16612;SDS011;8419;52.358;9.752;2022-08-01T10:00:57;3.37;;;1.90;;
16612;SDS011;8419;52.358;9.752;2022-08-01T10:03:44;2.12;;;1.80;;
16612;SDS011;8419;52.358;9.752;2022-08-01T10:06:29;3.05;;;2.08;;
16612;SDS011;8419;52.358;9.752;2022-08-01T10:09:15;3.55;;;2.08;;
16612;SDS011;8419;52.358;9.752;2022-08-01T10:12:11;4.72;;;2.12;;
16612;SDS011;8419;52.358;9.752;2022-08-01T10:14:58;2.87;;;2.08;;
16612;SDS011;8419;52.358;9.752;2022-08-01T10:17:46;2.87;;;2.40;;
16612;SDS011;8419;52.358;9.752;2022-08-01T10:20:37;5.68;;;3.30;;
16612;SDS011;8419;52.358;9.752;2022-08-01T10:23:23;3.10;;;1.90;;
16612;SDS011;8419;52.358;9.752;2022-08-01T10:26:10;1.70;;;1.60;;
16612;SDS011;8419;52.358;9.752;2022-08-01T10:28:59;1.77;;;1.33;;
16612;SDS011;8419;52.358;9.752;2022-08-01T10:31:45;1.87;;;1.73;;
16612;SDS011;8419;52.358;9.752;2022-08-01T10:34:31;3.90;;;2.30;;
16612;SDS011;8419;52.358;9.752;2022-08-01T10:37:18;3.00;;;2.30;;
16612;SDS011;8419;52.358;9.752;2022-08-01T10:40:05;2.45;;;1.83;;
16612;SDS011;8419;52.358;9.752;2022-08-01T10:42:52;5.15;;;2.53;;
16612;SDS011;8419;52.358;9.752;2022-08-01T10:45:38;4.65;;;2.75;;
16612;SDS011;8419;52.358;9.752;2022-08-01T10:48:26;3.10;;;2.50;;
16612;SDS011;8419;52.358;9.752;2022-08-01T10:51:19;4.47;;;2.50;;
16612;SDS011;8419;52.358;9.752;2022-08-01T10:54:06;2.50;;;1.90;;
16612;SDS011;8419;52.358;9.752;2022-08-01T10:56:53;3.75;;;1.80;;
16612;SDS011;8419;52.358;9.752;2022-08-01T10:59:50;2.37;;;1.70;;
16612;SDS011;8419;52.358;9.752;2022-08-01T11:02:37;2.53;;;1.50;;
16612;SDS011;8419;52.358;9.752;2022-08-01T11:05:25;4.37;;;1.85;;
16612;SDS011;8419;52.358;9.752;2022-08-01T11:08:20;5.40;;;1.85;;
16612;SDS011;8419;52.358;9.752;2022-08-01T11:11:07;5.18;;;1.73;;
16612;SDS011;8419;52.358;9.752;2022-08-01T11:14:03;2.40;;;1.50;;
16612;SDS011;8419;52.358;9.752;2022-08-01T11:16:53;2.35;;;1.80;;
16612;SDS011;8419;52.358;9.752;2022-08-01T11:20:03;3.33;;;1.60;;
16612;SDS011;8419;52.358;9.752;2022-08-01T11:23:15;4.28;;;1.42;;
16612;SDS011;8419;52.358;9.752;2022-08-01T11:26:11;3.30;;;1.43;;
16612;SDS011;8419;52.358;9.752;2022-08-01T11:29:11;4.30;;;1.70;;
16612;SDS011;8419;52.358;9.752;2022-08-01T11:32:19;2.65;;;1.80;;
16612;SDS011;8419;52.358;9.752;2022-08-01T11:35:09;2.75;;;1.40;;
16612;SDS011;8419;52.358;9.752;2022-08-01T11:37:54;3.80;;;1.40;;
16612;SDS011;8419;52.358;9.752;2022-08-01T11:40:40;5.43;;;1.42;;
16612;SDS011;8419;52.358;9.752;2022-08-01T11:43:26;4.62;;;1.83;;
16612;SDS011;8419;52.358;9.752;2022-08-01T11:46:11;1.92;;;1.30;;
16612;SDS011;8419;52.358;9.752;2022-08-01T11:52:08;3.28;;;1.55;;
16612;SDS011;8419;52.358;9.752;2022-08-01T11:54:55;3.00;;;1.80;;
16612;SDS011;8419;52.358;9.752;2022-08-01T11:57:43;4.70;;;1.80;;
16612;SDS011;8419;52.358;9.752;2022-08-01T12:00:28;2.55;;;1.60;;
16612;SDS011;8419;52.358;9.752;2022-08-01T12:03:15;2.40;;;1.37;;
16612;SDS011;8419;52.358;9.752;2022-08-01T12:06:00;3.50;;;1.40;;
16612;SDS011;8419;52.358;9.752;2022-08-01T12:08:47;4.53;;;1.90;;
16612;SDS011;8419;52.358;9.752;2022-08-01T12:11:32;3.78;;;1.70;;
16612;SDS011;8419;52.358;9.752;2022-08-01T12:14:18;4.40;;;1.75;;
16612;SDS011;8419;52.358;9.752;2022-08-01T12:17:05;4.68;;;1.65;;
16612;SDS011;8419;52.358;9.752;2022-08-01T12:19:51;7.00;;;2.37;;
16612;SDS011;8419;52.358;9.752;2022-08-01T12:22:36;3.80;;;1.98;;
16612;SDS011;8419;52.358;9.752;2022-08-01T12:25:22;4.18;;;1.70;;
16612;SDS011;8419;52.358;9.752;2022-08-01T12:28:08;4.90;;;1.73;;
16612;SDS011;8419;52.358;9.752;2022-08-01T12:30:56;3.75;;;1.85;;
16612;SDS011;8419;52.358;9.752;2022-08-01T12:33:42;5.82;;;2.03;;
16612;SDS011;8419;52.358;9.752;2022-08-01T12:36:28;4.40;;;2.12;;
16612;SDS011;8419;52.358;9.752;2022-08-01T12:39:14;4.18;;;1.80;;
16612;SDS011;8419;52.358;9.752;2022-08-01T12:41:59;4.05;;;1.70;;
16612;SDS011;8419;52.358;9.752;2022-08-01T12:44:50;3.25;;;1.60;;
16612;SDS011;8419;52.358;9.752;2022-08-01T12:47:37;5.22;;;2.00;;
16612;SDS011;8419;52.358;9.752;2022-08-01T12:50:23;4.60;;;1.80;;
16612;SDS011;8419;52.358;9.752;2022-08-01T12:53:12;4.32;;;2.00;;
16612;SDS011;8419;52.358;9.752;2022-08-01T12:55:58;5.40;;;1.75;;
16612;SDS011;8419;52.358;9.752;2022-08-01T12:58:44;3.60;;;2.30;;
16612;SDS011;8419;52.358;9.752;2022-08-01T13:01:30;4.25;;;2.20;;
16612;SDS011;8419;52.358;9.752;2022-08-01T13:04:16;4.37;;;1.80;;
16612;SDS011;8419;52.358;9.752;2022-08-01T13:07:01;5.68;;;2.30;;
16612;SDS011;8419;52.358;9.752;2022-08-01T13:09:49;2.67;;;1.62;;
16612;SDS011;8419;52.358;9.752;2022-08-01T13:12:35;3.45;;;1.90;;
16612;SDS011;8419;52.358;9.752;2022-08-01T13:15:22;3.67;;;1.90;;
16612;SDS011;8419;52.358;9.752;2022-08-01T13:18:22;2.50;;;1.70;;
16612;SDS011;8419;52.358;9.752;2022-08-01T13:21:10;5.25;;;1.87;;
16612;SDS011;8419;52.358;9.752;2022-08-01T13:24:00;7.78;;;2.08;;
16612;SDS011;8419;52.358;9.752;2022-08-01T13:26:48;2.65;;;1.92;;
16612;SDS011;8419;52.358;9.752;2022-08-01T13:29:35;3.78;;;1.62;;
16612;SDS011;8419;52.358;9.752;2022-08-01T13:32:22;5.25;;;2.28;;
16612;SDS011;8419;52.358;9.752;2022-08-01T13:35:08;3.62;;;2.10;;
16612;SDS011;8419;52.358;9.752;2022-08-01T13:37:56;5.00;;;2.20;;
16612;SDS011;8419;52.358;9.752;2022-08-01T13:40:41;6.07;;;2.10;;
16612;SDS011;8419;52.358;9.752;2022-08-01T13:43:27;5.22;;;1.83;;
16612;SDS011;8419;52.358;9.752;2022-08-01T13:46:12;3.97;;;1.73;;
16612;SDS011;8419;52.358;9.752;2022-08-01T13:49:00;5.43;;;2.00;;
16612;SDS011;8419;52.358;9.752;2022-08-01T13:51:46;4.35;;;1.80;;
16612;SDS011;8419;52.358;9.752;2022-08-01T13:54:34;3.67;;;1.77;;
16612;SDS011;8419;52.358;9.752;2022-08-01T13:57:20;3.45;;;1.70;;
16612;SDS011;8419;52.358;9.752;2022-08-01T14:00:07;4.55;;;2.08;;
16612;SDS011;8419;52.358;9.752;2022-08-01T14:02:54;5.82;;;2.40;;
16612;SDS011;8419;52.358;9.752;2022-08-01T14:05:40;3.47;;;1.83;;
16612;SDS011;8419;52.358;9.752;2022-08-01T14:08:26;1.70;;;1.08;;
16612;SDS011;8419;52.358;9.752;2022-08-01T14:11:12;3.50;;;1.95;;
16612;SDS011;8419;52.358;9.752;2022-08-01T14:13:59;4.40;;;1.95;;
16612;SDS011;8419;52.358;9.752;2022-08-01T14:16:45;2.58;;;1.83;;
16612;SDS011;8419;52.358;9.752;2022-08-01T14:19:33;4.03;;;2.33;;
16612;SDS011;8419;52.358;9.752;2022-08-01T14:22:18;5.10;;;2.45;;
16612;SDS011;8419;52.358;9.752;2022-08-01T14:25:10;6.15;;;2.30;;
16612;SDS011;8419;52.358;9.752;2022-08-01T14:27:56;3.95;;;1.92;;
16612;SDS011;8419;52.358;9.752;2022-08-01T14:30:42;6.25;;;2.00;;
16612;SDS011;8419;52.358;9.752;2022-08-01T14:33:30;3.97;;;2.05;;
16612;SDS011;8419;52.358;9.752;2022-08-01T14:36:18;6.03;;;1.95;;
16612;SDS011;8419;52.358;9.752;2022-08-01T14:39:03;5.10;;;2.30;;
16612;SDS011;8419;52.358;9.752;2022-08-01T14:41:49;3.85;;;1.77;;
16612;SDS011;8419;52.358;9.752;2022-08-01T14:44:35;4.82;;;2.10;;
16612;SDS011;8419;52.358;9.752;2022-08-01T14:47:23;3.35;;;2.12;;
16612;SDS011;8419;52.358;9.752;2022-08-01T14:50:11;7.85;;;2.00;;
16612;SDS011;8419;52.358;9.752;2022-08-01T14:52:58;2.90;;;2.15;;
16612;SDS011;8419;52.358;9.752;2022-08-01T14:55:44;4.05;;;2.53;;
16612;SDS011;8419;52.358;9.752;2022-08-01T14:58:29;5.30;;;2.35;;
16612;SDS011;8419;52.358;9.752;2022-08-01T15:01:14;6.10;;;2.35;;
16612;SDS011;8419;52.358;9.752;2022-08-01T15:04:00;7.65;;;2.70;;
16612;SDS011;8419;52.358;9.752;2022-08-01T15:06:46;9.63;;;2.65;;
16612;SDS011;8419;52.358;9.752;2022-08-01T15:09:31;7.12;;;2.40;;
16612;SDS011;8419;52.358;9.752;2022-08-01T15:12:16;5.30;;;2.12;;
16612;SDS011;8419;52.358;9.752;2022-08-01T15:15:02;6.55;;;2.65;;
16612;SDS011;8419;52.358;9.752;2022-08-01T15:17:48;3.67;;;2.20;;
16612;SDS011;8419;52.358;9.752;2022-08-01T15:20:36;4.65;;;2.30;;
16612;SDS011;8419;52.358;9.752;2022-08-01T15:23:22;5.22;;;2.25;;
16612;SDS011;8419;52.358;9.752;2022-08-01T15:26:07;5.93;;;2.58;;
16612;SDS011;8419;52.358;9.752;2022-08-01T15:28:57;5.55;;;2.17;;
16612;SDS011;8419;52.358;9.752;2022-08-01T15:31:43;3.30;;;2.08;;
16612;SDS011;8419;52.358;9.752;2022-08-01T15:34:28;4.50;;;2.17;;
16612;SDS011;8419;52.358;9.752;2022-08-01T15:37:13;8.55;;;2.50;;
16612;SDS011;8419;52.358;9.752;2022-08-01T15:39:59;5.28;;;2.22;;
16612;SDS011;8419;52.358;9.752;2022-08-01T15:42:44;4.35;;;1.90;;
16612;SDS011;8419;52.358;9.752;2022-08-01T15:45:32;4.20;;;1.67;;
16612;SDS011;8419;52.358;9.752;2022-08-01T15:48:19;7.18;;;2.03;;
16612;SDS011;8419;52.358;9.752;2022-08-01T15:51:04;3.95;;;1.75;;
16612;SDS011;8419;52.358;9.752;2022-08-01T15:53:51;8.85;;;2.12;;
16612;SDS011;8419;52.358;9.752;2022-08-01T15:56:40;5.18;;;2.03;;
16612;SDS011;8419;52.358;9.752;2022-08-01T15:59:25;6.32;;;1.77;;
16612;SDS011;8419;52.358;9.752;2022-08-01T16:02:11;2.35;;;1.45;;
16612;SDS011;8419;52.358;9.752;2022-08-01T16:04:58;3.72;;;1.85;;
16612;SDS011;8419;52.358;9.752;2022-08-01T16:07:44;4.95;;;1.62;;
16612;SDS011;8419;52.358;9.752;2022-08-01T16:10:29;5.07;;;1.30;;
16612;SDS011;8419;52.358;9.752;2022-08-01T16:13:15;2.62;;;1.50;;
16612;SDS011;8419;52.358;9.752;2022-08-01T16:16:01;4.07;;;1.50;;
16612;SDS011;8419;52.358;9.752;2022-08-01T16:18:51;2.80;;;1.30;;
16612;SDS011;8419;52.358;9.752;2022-08-01T16:21:37;6.12;;;1.65;;
16612;SDS011;8419;52.358;9.752;2022-08-01T16:24:24;5.30;;;1.42;;
16612;SDS011;8419;52.358;9.752;2022-08-01T16:27:13;2.03;;;1.20;;
16612;SDS011;8419;52.358;9.752;2022-08-01T16:30:02;7.97;;;1.52;;
16612;SDS011;8419;52.358;9.752;2022-08-01T16:32:49;6.10;;;1.55;;
16612;SDS011;8419;52.358;9.752;2022-08-01T16:35:35;3.55;;;1.50;;
16612;SDS011;8419;52.358;9.752;2022-08-01T16:38:21;5.22;;;1.70;;
16612;SDS011;8419;52.358;9.752;2022-08-01T16:41:06;4.45;;;1.30;;
16612;SDS011;8419;52.358;9.752;2022-08-01T16:43:52;4.82;;;2.00;;
16612;SDS011;8419;52.358;9.752;2022-08-01T16:46:37;5.45;;;1.90;;
16612;SDS011;8419;52.358;9.752;2022-08-01T16:49:23;3.67;;;1.70;;
16612;SDS011;8419;52.358;9.752;2022-08-01T16:52:10;2.90;;;1.20;;
16612;SDS011;8419;52.358;9.752;2022-08-01T16:54:56;6.60;;;1.42;;
16612;SDS011;8419;52.358;9.752;2022-08-01T16:57:41;3.45;;;1.73;;
16612;SDS011;8419;52.358;9.752;2022-08-01T17:00:27;5.35;;;1.55;;
16612;SDS011;8419;52.358;9.752;2022-08-01T17:03:13;6.82;;;1.70;;
16612;SDS011;8419;52.358;9.752;2022-08-01T17:05:58;3.90;;;1.62;;